createdAt,value
2022-10-17T00:02:20.461Z,79.98
2022-10-17T00:04:52.608Z,79.71
2022-10-17T00:07:25.040Z,79.98
2022-10-17T00:09:57.490Z,80.23
2022-10-17T00:12:29.670Z,80.74
2022-10-17T00:15:03.464Z,80.42
2022-10-17T00:17:35.702Z,79.79
2022-10-17T00:20:09.728Z,79.76
2022-10-17T00:22:42.178Z,80.06
2022-10-17T00:25:14.875Z,79.90
2022-10-17T00:27:47.126Z,80.25
2022-10-17T00:30:20.307Z,80.48
2022-10-17T00:32:52.572Z,80.57
2022-10-17T00:35:24.895Z,80.20
2022-10-17T00:37:57.156Z,80.14
2022-10-17T00:40:29.486Z,80.67
2022-10-17T00:43:01.589Z,81.03
2022-10-17T00:45:34.480Z,81.06
2022-10-17T00:48:10.596Z,81.19
2022-10-17T00:50:47.617Z,81.40
2022-10-17T00:53:21.352Z,80.98
2022-10-17T00:55:55.825Z,80.93
2022-10-17T00:58:28.029Z,81.23
2022-10-17T01:01:00.350Z,80.60
2022-10-17T01:03:32.685Z,80.28
2022-10-17T01:06:05.127Z,80.39
2022-10-17T01:08:37.577Z,81.02
2022-10-17T01:11:21.393Z,80.89
2022-10-17T01:13:57.730Z,80.91
2022-10-17T01:16:40.538Z,81.15
2022-10-17T01:19:36.376Z,80.81
2022-10-17T01:22:15.957Z,81.00
2022-10-17T01:25:06.194Z,81.11
2022-10-17T01:27:50.630Z,80.95
2022-10-17T01:31:13.781Z,80.99
2022-10-17T01:33:55.108Z,80.42
2022-10-17T01:36:37.776Z,80.38
2022-10-17T01:39:18.595Z,80.55
2022-10-17T01:41:57.401Z,80.98
2022-10-17T01:44:37.593Z,80.54
2022-10-17T01:47:14.437Z,80.52
2022-10-17T01:49:49.721Z,80.53
2022-10-17T01:52:26.132Z,80.84
2022-10-17T01:55:04.696Z,80.96
2022-10-17T01:57:42.532Z,81.06
2022-10-17T02:00:19.875Z,81.16
2022-10-17T02:03:01.215Z,81.27
2022-10-17T02:05:36.804Z,81.05
2022-10-17T02:08:10.092Z,80.65
2022-10-17T02:10:48.486Z,80.52
2022-10-17T02:13:32.158Z,80.84
2022-10-17T02:16:16.742Z,80.88
2022-10-17T02:19:03.598Z,81.14
2022-10-17T02:21:45.943Z,81.34
2022-10-17T02:24:32.201Z,81.16
2022-10-17T02:27:12.120Z,81.01
2022-10-17T02:29:51.045Z,80.97
2022-10-17T02:32:30.180Z,80.92
2022-10-17T02:35:07.027Z,81.20
2022-10-17T02:37:40.135Z,81.22
2022-10-17T02:40:15.586Z,81.25
2022-10-17T02:42:48.419Z,81.27
2022-10-17T02:45:24.712Z,81.36
2022-10-17T02:48:03.599Z,81.78
2022-10-17T02:50:44.804Z,81.88
2022-10-17T02:53:21.748Z,81.92
2022-10-17T02:55:59.098Z,81.96
2022-10-17T02:58:35.225Z,81.54
2022-10-17T03:01:08.407Z,81.60
2022-10-17T03:03:40.672Z,81.20
2022-10-17T03:06:13.098Z,81.14
2022-10-17T03:08:45.309Z,81.61
2022-10-17T03:11:17.563Z,81.95
2022-10-17T03:13:50.260Z,81.91
2022-10-17T03:16:22.779Z,81.90
2022-10-17T03:18:55.143Z,82.00
2022-10-17T03:21:28.199Z,82.07
2022-10-17T03:24:00.767Z,81.72
2022-10-17T03:26:34.130Z,81.98
2022-10-17T03:29:06.555Z,82.13
2022-10-17T03:31:39.687Z,82.22
2022-10-17T03:34:12.336Z,82.13
2022-10-17T03:36:44.600Z,81.87
2022-10-17T03:39:17.503Z,82.09
2022-10-17T03:41:49.977Z,82.11
2022-10-17T03:44:22.317Z,82.15
2022-10-17T03:46:54.616Z,82.09
2022-10-17T03:49:26.726Z,81.78
2022-10-17T03:51:59.720Z,81.85
2022-10-17T03:54:32.379Z,81.65
2022-10-17T03:57:04.978Z,81.67
2022-10-17T03:59:37.601Z,81.87
2022-10-17T04:02:17.556Z,82.00
2022-10-17T04:04:49.944Z,81.87
2022-10-17T04:07:22.233Z,81.77
2022-10-17T04:09:54.544Z,81.68
2022-10-17T04:12:28.248Z,81.72
2022-10-17T04:15:00.852Z,81.77
2022-10-17T04:17:37.349Z,81.77
2022-10-17T04:20:12.578Z,81.86
2022-10-17T04:22:44.854Z,81.77
2022-10-17T04:25:19.819Z,81.74
2022-10-17T04:27:53.855Z,81.54
2022-10-17T04:30:26.288Z,81.63
2022-10-17T04:32:58.469Z,81.66
2022-10-17T04:35:33.096Z,81.65
2022-10-17T04:38:08.876Z,81.55
2022-10-17T04:40:41.196Z,80.96
2022-10-17T04:43:14.177Z,81.43
2022-10-17T04:45:46.606Z,81.68
2022-10-17T04:48:18.903Z,81.69
2022-10-17T04:50:58.653Z,81.49
2022-10-17T04:53:43.749Z,81.59
2022-10-17T04:56:19.547Z,81.70
2022-10-17T04:58:52.218Z,81.82
2022-10-17T05:01:25.696Z,81.82
2022-10-17T05:03:58.649Z,81.85
2022-10-17T05:06:31.673Z,81.38
2022-10-17T05:09:22.319Z,81.22
2022-10-17T05:11:54.778Z,81.82
2022-10-17T05:14:28.463Z,82.04
2022-10-17T05:17:00.792Z,82.27
2022-10-17T05:19:33.695Z,82.16
2022-10-17T05:22:06.249Z,82.26
2022-10-17T05:24:38.892Z,82.42
2022-10-17T05:27:11.012Z,82.43
2022-10-17T05:29:43.209Z,82.51
2022-10-17T05:32:21.400Z,82.51
2022-10-17T05:34:53.589Z,82.21
2022-10-17T05:37:26.468Z,82.50
2022-10-17T05:40:00.568Z,82.50
2022-10-17T05:42:34.694Z,82.58
2022-10-17T05:45:10.227Z,82.52
2022-10-17T05:47:42.634Z,82.13
2022-10-17T05:50:15.043Z,82.37
2022-10-17T05:53:04.371Z,82.76
2022-10-17T05:55:38.674Z,82.90
2022-10-17T05:58:17.681Z,83.17
2022-10-17T06:01:03.767Z,83.21
2022-10-17T06:03:36.389Z,83.31
2022-10-17T06:06:12.867Z,83.22
2022-10-17T06:08:48.260Z,83.22
2022-10-17T06:11:25.215Z,83.04
2022-10-17T06:13:57.630Z,83.13
2022-10-17T06:16:31.022Z,83.32
2022-10-17T06:19:03.727Z,83.47
2022-10-17T06:21:37.980Z,83.61
2022-10-17T06:24:15.717Z,83.63
2022-10-17T06:26:49.986Z,83.69
2022-10-17T06:29:22.854Z,83.95
2022-10-17T06:31:57.786Z,83.82
2022-10-17T06:34:31.098Z,84.02
2022-10-17T06:37:03.240Z,84.55
2022-10-17T06:39:38.001Z,84.64
2022-10-17T06:42:15.309Z,84.52
2022-10-17T06:45:20.124Z,84.54
2022-10-17T06:48:18.704Z,84.53
2022-10-17T06:51:11.533Z,84.58
2022-10-17T06:53:58.181Z,84.56
2022-10-17T06:56:59.466Z,84.81
2022-10-17T06:59:36.642Z,85.12
2022-10-17T07:02:14.689Z,85.22
2022-10-17T07:04:48.679Z,85.20
2022-10-17T07:07:21.024Z,85.11
2022-10-17T07:09:54.141Z,85.25
2022-10-17T07:12:26.388Z,85.80
2022-10-17T07:14:58.540Z,85.61
2022-10-17T07:17:31.556Z,85.76
2022-10-17T07:20:04.215Z,85.83
2022-10-17T07:22:38.555Z,86.31
2022-10-17T07:25:14.180Z,86.07
2022-10-17T07:27:54.591Z,85.96
2022-10-17T07:30:27.527Z,86.29
2022-10-17T07:33:06.762Z,86.65
2022-10-17T07:35:42.008Z,86.83
2022-10-17T07:38:15.255Z,86.92
2022-10-17T07:40:47.369Z,87.13
2022-10-17T07:43:19.690Z,87.32
2022-10-17T07:45:52.936Z,87.24
2022-10-17T07:48:25.999Z,86.97
2022-10-17T07:50:58.374Z,86.96
2022-10-17T07:53:30.446Z,86.53
2022-10-17T07:56:04.438Z,85.92
2022-10-17T07:58:37.254Z,85.83
2022-10-17T08:01:16.171Z,85.85
2022-10-17T08:03:49.809Z,85.88
2022-10-17T08:06:22.023Z,85.89
2022-10-17T08:08:54.166Z,85.98
2022-10-17T08:11:26.590Z,85.67
2022-10-17T08:13:58.937Z,85.65
2022-10-17T08:16:31.182Z,85.92
2022-10-17T08:19:03.528Z,86.28
2022-10-17T08:21:35.927Z,85.89
2022-10-17T08:24:08.374Z,86.00
2022-10-17T08:26:43.388Z,86.19
2022-10-17T08:29:18.176Z,85.94
2022-10-17T08:31:54.079Z,85.78
2022-10-17T08:34:30.844Z,85.77
2022-10-17T08:37:03.284Z,85.93
2022-10-17T08:39:35.441Z,85.71
2022-10-17T08:42:26.595Z,85.87
2022-10-17T08:45:08.956Z,85.85
2022-10-17T08:47:44.551Z,85.76
2022-10-17T08:50:22.675Z,85.39
2022-10-17T08:53:01.349Z,85.29
2022-10-17T08:55:41.311Z,84.98
2022-10-17T08:58:21.208Z,85.15
2022-10-17T09:01:03.078Z,85.02
2022-10-17T09:03:49.721Z,85.02
2022-10-17T09:06:29.974Z,84.54
2022-10-17T09:09:15.056Z,84.55
2022-10-17T09:11:57.880Z,84.24
2022-10-17T09:14:43.253Z,84.33
2022-10-17T09:17:28.769Z,84.67
2022-10-17T09:20:07.242Z,84.74
2022-10-17T09:22:44.261Z,84.52
2022-10-17T09:25:19.055Z,84.05
2022-10-17T09:27:53.888Z,84.01
2022-10-17T09:30:45.182Z,83.80
2022-10-17T09:33:34.655Z,84.20
2022-10-17T09:36:15.650Z,84.18
2022-10-17T09:38:51.745Z,83.84
2022-10-17T09:41:45.934Z,83.34
2022-10-17T09:44:19.965Z,82.53
2022-10-17T09:47:16.698Z,82.60
2022-10-17T09:49:50.118Z,82.55
2022-10-17T09:52:28.659Z,82.84
2022-10-17T09:55:05.562Z,82.19
2022-10-17T10:01:14.000Z,81.11
2022-10-17T10:03:42.823Z,81.24
2022-10-17T10:06:16.631Z,81.23
2022-10-17T10:08:54.018Z,81.45
2022-10-17T10:11:25.442Z,81.25
2022-10-17T10:13:54.210Z,80.77
2022-10-17T10:16:31.664Z,80.82
2022-10-17T10:19:02.652Z,80.51
2022-10-17T10:21:32.385Z,79.81
2022-10-17T10:24:11.338Z,79.43
2022-10-17T10:26:42.490Z,79.03
2022-10-17T10:29:24.250Z,78.75
2022-10-17T10:31:54.484Z,78.79
2022-10-17T10:34:26.378Z,79.06
2022-10-17T10:37:02.951Z,78.28
2022-10-17T10:39:45.818Z,78.26
2022-10-17T10:42:25.025Z,77.51
2022-10-17T10:44:57.783Z,76.77
2022-10-17T10:47:28.913Z,77.52
2022-10-17T10:50:25.435Z,77.24
2022-10-17T10:53:10.467Z,77.06
2022-10-17T10:55:48.984Z,76.80
2022-10-17T10:58:41.786Z,76.62
2022-10-17T11:01:21.737Z,75.73
2022-10-17T11:04:02.979Z,75.98
2022-10-17T11:06:41.350Z,75.50
2022-10-17T11:09:33.818Z,75.71
2022-10-17T11:12:12.403Z,75.68
2022-10-17T11:14:49.549Z,75.57
2022-10-17T11:17:32.038Z,75.08
2022-10-17T11:20:16.570Z,74.39
2022-10-17T11:22:50.977Z,73.99
2022-10-17T11:25:29.932Z,74.01
2022-10-17T11:28:05.133Z,74.20
2022-10-17T11:30:46.117Z,73.67
2022-10-17T11:33:25.719Z,73.40
2022-10-17T11:36:03.338Z,73.19
2022-10-17T11:38:47.035Z,72.84
2022-10-17T11:41:25.517Z,72.55
2022-10-17T11:44:01.667Z,72.80
2022-10-17T11:46:36.616Z,72.76
2022-10-17T11:49:20.080Z,72.45
2022-10-17T11:52:00.274Z,71.97
2022-10-17T11:54:39.167Z,71.85
2022-10-17T11:57:26.077Z,72.12
2022-10-17T12:00:13.268Z,71.89
2022-10-17T12:02:52.988Z,71.32
2022-10-17T12:05:34.201Z,71.07
2022-10-17T12:08:11.474Z,71.09
2022-10-17T12:10:51.979Z,71.29
2022-10-17T12:13:52.045Z,70.79
2022-10-17T12:16:47.509Z,70.77
2022-10-17T12:19:37.938Z,70.35
2022-10-17T12:22:22.643Z,69.95
2022-10-17T12:25:00.795Z,70.24
2022-10-17T12:27:39.822Z,70.17
2022-10-17T12:30:27.763Z,70.10
2022-10-17T12:33:22.609Z,69.82
2022-10-17T12:36:13.631Z,70.05
2022-10-17T12:38:49.894Z,69.83
2022-10-17T12:41:57.922Z,69.83
2022-10-17T12:44:39.522Z,69.35
2022-10-17T12:47:40.690Z,69.35
2022-10-17T12:50:56.525Z,69.42
2022-10-17T12:53:37.302Z,69.17
2022-10-17T12:56:09.862Z,69.46
2022-10-17T12:58:46.655Z,69.35
2022-10-17T13:01:24.966Z,69.26
2022-10-17T13:03:58.526Z,69.13
2022-10-17T13:06:37.776Z,68.78
2022-10-17T13:09:30.101Z,68.64
2022-10-17T13:12:05.021Z,68.69
2022-10-17T13:14:40.194Z,68.63
2022-10-17T13:17:32.915Z,68.48
2022-10-17T13:20:05.414Z,68.66
2022-10-17T13:22:45.463Z,68.50
2022-10-17T13:25:20.430Z,68.35
2022-10-17T13:27:54.054Z,68.31
2022-10-17T13:30:31.963Z,68.01
2022-10-17T13:33:05.629Z,68.05
2022-10-17T13:35:59.319Z,68.23
2022-10-17T13:38:35.669Z,68.18
2022-10-17T13:41:35.899Z,68.23
2022-10-17T13:44:15.167Z,68.22
2022-10-17T13:46:47.845Z,68.30
2022-10-17T13:49:27.971Z,68.21
2022-10-17T13:52:01.854Z,68.27
2022-10-17T13:54:40.311Z,68.18
2022-10-17T13:57:24.034Z,68.14
2022-10-17T13:59:59.578Z,67.99
2022-10-17T14:02:33.305Z,68.00
2022-10-17T14:05:17.226Z,68.04
2022-10-17T14:08:10.877Z,68.08
2022-10-17T14:10:45.632Z,68.11
2022-10-17T14:13:24.893Z,68.18
2022-10-17T14:16:00.467Z,68.24
2022-10-17T14:18:36.586Z,68.24
2022-10-17T14:24:29.852Z,68.27
2022-10-17T14:27:02.684Z,68.21
2022-10-17T14:29:48.947Z,68.13
2022-10-17T14:32:21.503Z,68.23
2022-10-17T14:35:09.596Z,68.27
2022-10-17T14:37:51.823Z,68.32
2022-10-17T14:40:26.237Z,68.34
2022-10-17T14:43:00.490Z,68.31
2022-10-17T14:45:34.490Z,68.41
2022-10-17T14:48:10.575Z,68.31
2022-10-17T14:53:24.249Z,68.36
2022-10-17T14:56:01.043Z,68.32
2022-10-17T14:58:34.768Z,68.32
2022-10-17T15:01:06.891Z,68.38
2022-10-17T15:03:38.888Z,68.43
2022-10-17T15:06:20.442Z,68.56
2022-10-17T15:08:52.383Z,68.63
2022-10-17T15:11:24.297Z,68.70
2022-10-17T15:13:56.239Z,68.66
2022-10-17T15:16:32.547Z,68.65
2022-10-17T15:19:04.564Z,68.68
2022-10-17T15:21:41.817Z,68.78
2022-10-17T15:24:16.839Z,68.85
2022-10-17T15:26:49.577Z,68.98
2022-10-17T15:29:21.736Z,69.00
2022-10-17T15:31:53.650Z,69.05
2022-10-17T15:34:25.692Z,69.13
2022-10-17T15:36:58.813Z,69.07
2022-10-17T15:39:30.806Z,69.02
2022-10-17T15:42:02.788Z,69.21
2022-10-17T15:44:34.730Z,69.34
2022-10-17T15:47:07.306Z,69.40
2022-10-17T15:49:39.302Z,69.55
2022-10-17T15:52:12.764Z,69.59
2022-10-17T15:54:44.664Z,69.63
2022-10-17T15:57:20.635Z,69.71
2022-10-17T15:59:53.758Z,69.58
2022-10-17T16:02:26.539Z,69.64
2022-10-17T16:04:58.615Z,69.69
2022-10-17T16:07:30.866Z,69.77
2022-10-17T16:10:03.190Z,69.96
2022-10-17T16:12:41.230Z,70.07
2022-10-17T16:15:17.423Z,69.97
2022-10-17T16:17:49.810Z,70.37
2022-10-17T16:20:22.788Z,70.00
2022-10-17T16:22:59.930Z,69.97
2022-10-17T16:25:33.290Z,70.16
2022-10-17T16:28:06.366Z,70.25
2022-10-17T16:30:46.206Z,70.35
2022-10-17T16:33:18.202Z,70.44
2022-10-17T16:35:50.476Z,70.49
2022-10-17T16:38:22.394Z,70.54
2022-10-17T16:40:54.355Z,70.47
2022-10-17T16:43:26.314Z,70.52
2022-10-17T16:45:58.202Z,70.59
2022-10-17T16:48:30.157Z,70.68
2022-10-17T16:51:02.942Z,70.82
2022-10-17T16:53:34.874Z,70.94
2022-10-17T16:56:08.529Z,71.00
2022-10-17T16:58:40.816Z,71.00
2022-10-17T17:01:15.809Z,70.89
2022-10-17T17:03:49.028Z,71.08
2022-10-17T17:06:24.404Z,71.11
2022-10-17T17:08:56.973Z,71.29
2022-10-17T17:11:29.982Z,71.38
2022-10-17T17:14:02.893Z,71.42
2022-10-17T17:16:35.965Z,71.42
2022-10-17T17:19:12.283Z,71.49
2022-10-17T17:21:50.167Z,71.50
2022-10-17T17:24:23.289Z,71.54
2022-10-17T17:26:56.858Z,71.58
2022-10-17T17:29:28.828Z,71.65
2022-10-17T17:32:00.841Z,71.70
2022-10-17T17:34:36.390Z,71.93
2022-10-17T17:37:08.339Z,71.89
2022-10-17T17:39:40.509Z,72.13
2022-10-17T17:42:12.385Z,72.23
2022-10-17T17:44:45.142Z,72.29
2022-10-17T17:47:17.055Z,72.21
2022-10-17T17:49:48.951Z,72.25
2022-10-17T17:52:20.866Z,72.40
2022-10-17T17:54:52.740Z,72.50
2022-10-17T17:57:24.703Z,72.51
2022-10-17T17:59:56.690Z,72.66
2022-10-17T18:02:29.018Z,72.74
2022-10-17T18:05:01.346Z,72.82
2022-10-17T18:07:34.524Z,72.72
2022-10-17T18:12:46.812Z,72.79
2022-10-17T18:15:19.118Z,72.98
2022-10-17T18:17:51.134Z,73.03
2022-10-17T18:20:23.323Z,73.34
2022-10-17T18:22:56.073Z,73.51
2022-10-17T18:25:30.187Z,73.44
2022-10-17T18:28:02.279Z,73.34
2022-10-17T18:30:37.304Z,73.43
2022-10-17T18:33:09.294Z,73.63
2022-10-17T18:35:41.411Z,73.69
2022-10-17T18:38:13.352Z,73.82
2022-10-17T18:40:47.352Z,73.99
2022-10-17T18:43:22.398Z,73.96
2022-10-17T18:45:57.087Z,74.02
2022-10-17T18:48:27.513Z,73.96
2022-10-17T18:50:59.592Z,74.16
2022-10-17T18:53:31.818Z,74.16
2022-10-17T18:56:04.245Z,74.16
2022-10-17T18:58:36.449Z,74.25
2022-10-17T19:01:10.697Z,74.38
2022-10-17T19:03:43.362Z,74.46
2022-10-17T19:06:17.404Z,74.63
2022-10-17T19:08:50.091Z,74.66
2022-10-17T19:11:24.178Z,74.62
2022-10-17T19:13:57.811Z,74.68
2022-10-17T19:16:32.609Z,74.67
2022-10-17T19:19:06.880Z,74.84
2022-10-17T19:21:39.342Z,74.89
2022-10-17T19:24:15.571Z,74.94
2022-10-17T19:26:50.350Z,75.09
2022-10-17T19:29:25.513Z,75.20
2022-10-17T19:31:57.903Z,75.08
2022-10-17T19:34:30.131Z,75.06
2022-10-17T19:37:02.114Z,75.29
2022-10-17T19:39:34.262Z,75.20
2022-10-17T19:42:07.263Z,75.29
2022-10-17T19:44:39.518Z,75.45
2022-10-17T19:47:11.676Z,75.40
2022-10-17T19:49:49.054Z,75.54
2022-10-17T19:52:22.095Z,75.49
2022-10-17T19:54:54.158Z,75.27
2022-10-17T19:57:26.675Z,75.37
2022-10-17T19:59:58.735Z,75.46
2022-10-17T20:02:31.118Z,75.51
2022-10-17T20:05:18.124Z,75.62
2022-10-17T20:07:50.910Z,75.72
2022-10-17T20:10:23.558Z,75.86
2022-10-17T20:12:55.999Z,75.95
2022-10-17T20:15:28.272Z,76.06
2022-10-17T20:18:00.758Z,75.97
2022-10-17T20:20:34.870Z,76.00
2022-10-17T20:23:07.219Z,75.99
2022-10-17T20:25:39.496Z,76.19
2022-10-17T20:28:11.623Z,76.29
2022-10-17T20:30:47.966Z,76.37
2022-10-17T20:33:20.625Z,76.59
2022-10-17T20:35:52.916Z,76.63
2022-10-17T20:38:25.145Z,76.29
2022-10-17T20:41:00.762Z,76.48
2022-10-17T20:43:33.020Z,76.58
2022-10-17T20:46:22.730Z,76.59
2022-10-17T20:48:59.221Z,76.66
2022-10-17T20:51:31.307Z,76.83
2022-10-17T20:54:03.829Z,76.77
2022-10-17T20:56:37.339Z,76.77
2022-10-17T20:59:13.193Z,76.65
2022-10-17T21:01:46.307Z,76.63
2022-10-17T21:04:44.730Z,76.60
2022-10-17T21:07:11.434Z,76.69
2022-10-17T21:09:43.560Z,76.78
2022-10-17T21:12:25.828Z,76.87
2022-10-17T21:15:09.245Z,76.82
2022-10-17T21:17:41.409Z,76.71
2022-10-17T21:20:15.120Z,76.81
2022-10-17T21:22:47.310Z,76.88
2022-10-17T21:25:20.329Z,76.89
2022-10-17T21:27:54.460Z,77.00
2022-10-17T21:30:26.658Z,77.09
2022-10-17T21:32:59.020Z,77.08
2022-10-17T21:35:31.320Z,77.13
2022-10-17T21:38:04.173Z,77.04
2022-10-17T21:40:36.262Z,76.84
2022-10-17T21:43:08.364Z,76.91
2022-10-17T21:45:40.462Z,76.96
2022-10-17T21:48:13.503Z,77.02
2022-10-17T21:50:45.925Z,77.14
2022-10-17T21:53:17.984Z,77.19
2022-10-17T21:55:50.087Z,77.27
2022-10-17T21:58:22.845Z,77.16
2022-10-17T22:00:55.081Z,77.21
2022-10-17T22:03:27.117Z,77.24
2022-10-17T22:06:12.730Z,77.32
2022-10-17T22:08:51.803Z,77.35
2022-10-17T22:11:27.262Z,77.53
2022-10-17T22:14:01.513Z,77.58
2022-10-17T22:16:34.035Z,77.63
2022-10-17T22:19:07.912Z,77.53
2022-10-17T22:21:40.247Z,77.29
2022-10-17T22:26:57.333Z,77.43
2022-10-17T22:29:29.608Z,77.41
2022-10-17T22:32:01.561Z,77.38
2022-10-17T22:34:33.661Z,77.53
2022-10-17T22:37:05.737Z,77.68
2022-10-17T22:39:38.762Z,77.73
2022-10-17T22:42:10.795Z,77.60
2022-10-17T22:44:42.881Z,77.51
2022-10-17T22:47:15.022Z,77.48
2022-10-17T22:49:46.967Z,77.56
2022-10-17T22:52:19.027Z,77.62
2022-10-17T22:54:51.028Z,77.60
2022-10-17T22:57:23.198Z,77.71
2022-10-17T22:59:55.218Z,77.78
2022-10-17T23:02:27.349Z,77.82
2022-10-17T23:04:59.798Z,77.74
2022-10-17T23:07:31.920Z,77.55
2022-10-17T23:10:04.636Z,77.65
2022-10-17T23:12:36.705Z,77.57
2022-10-17T23:15:10.727Z,77.78
2022-10-17T23:17:42.802Z,77.70
2022-10-17T23:20:15.296Z,77.96
2022-10-17T23:22:47.495Z,78.07
2022-10-17T23:25:19.903Z,78.04
2022-10-17T23:27:51.912Z,77.90
2022-10-17T23:30:23.945Z,77.79
2022-10-17T23:32:55.961Z,77.81
2022-10-17T23:35:28.091Z,77.92
2022-10-17T23:38:00.183Z,77.81
2022-10-17T23:40:32.563Z,77.93
2022-10-17T23:43:05.235Z,78.10
2022-10-17T23:45:37.385Z,78.21
2022-10-17T23:48:09.776Z,78.25
2022-10-17T23:50:41.915Z,78.05
2022-10-17T23:53:13.937Z,77.94
2022-10-17T23:55:45.947Z,77.87
2022-10-17T23:58:18.035Z,77.91
